sensor_id;sensor_type;location;lat;lon;timestamp;P1;durP1;ratioP1;P2;durP2;ratioP2
74715;SDS011;63234;37.558;127.058;2022-09-03T00:00:20;2.65;;;1.40;;
74715;SDS011;63234;37.558;127.058;2022-09-03T00:02:56;2.80;;;1.20;;
74715;SDS011;63234;37.558;127.058;2022-09-03T00:05:25;2.75;;;1.40;;
74715;SDS011;63234;37.558;127.058;2022-09-03T00:10:30;2.97;;;1.30;;
74715;SDS011;63234;37.558;127.058;2022-09-03T00:13:19;2.28;;;1.30;;
74715;SDS011;63234;37.558;127.058;2022-09-03T00:15:48;1.95;;;1.20;;
74715;SDS011;63234;37.558;127.058;2022-09-03T00:18:17;1.95;;;1.40;;
74715;SDS011;63234;37.558;127.058;2022-09-03T00:20:58;3.83;;;1.27;;
74715;SDS011;63234;37.558;127.058;2022-09-03T00:23:32;2.67;;;1.20;;
74715;SDS011;63234;37.558;127.058;2022-09-03T00:28:37;2.38;;;1.48;;
74715;SDS011;63234;37.558;127.058;2022-09-03T00:31:08;2.47;;;1.52;;
74715;SDS011;63234;37.558;127.058;2022-09-03T00:33:41;3.40;;;1.40;;
74715;SDS011;63234;37.558;127.058;2022-09-03T00:36:14;1.80;;;1.20;;
74715;SDS011;63234;37.558;127.058;2022-09-03T00:38:41;1.90;;;1.15;;
74715;SDS011;63234;37.558;127.058;2022-09-03T00:49:16;3.38;;;1.30;;
74715;SDS011;63234;37.558;127.058;2022-09-03T00:54:38;1.50;;;1.10;;
74715;SDS011;63234;37.558;127.058;2022-09-03T01:18:18;2.95;;;1.25;;
74715;SDS011;63234;37.558;127.058;2022-09-03T01:23:48;2.35;;;1.15;;
74715;SDS011;63234;37.558;127.058;2022-09-03T01:32:00;1.50;;;1.00;;
74715;SDS011;63234;37.558;127.058;2022-09-03T01:56:12;2.45;;;1.23;;
74715;SDS011;63234;37.558;127.058;2022-09-03T02:04:01;1.77;;;1.10;;
74715;SDS011;63234;37.558;127.058;2022-09-03T02:06:27;2.50;;;1.50;;
74715;SDS011;63234;37.558;127.058;2022-09-03T02:08:56;3.25;;;1.17;;
74715;SDS011;63234;37.558;127.058;2022-09-03T02:11:21;1.90;;;1.02;;
74715;SDS011;63234;37.558;127.058;2022-09-03T02:13:48;3.17;;;1.10;;
74715;SDS011;63234;37.558;127.058;2022-09-03T02:16:16;2.03;;;1.25;;
74715;SDS011;63234;37.558;127.058;2022-09-03T02:18:50;1.98;;;1.20;;
74715;SDS011;63234;37.558;127.058;2022-09-03T02:21:17;1.75;;;1.13;;
74715;SDS011;63234;37.558;127.058;2022-09-03T02:23:45;1.85;;;0.90;;
74715;SDS011;63234;37.558;127.058;2022-09-03T02:26:11;2.00;;;1.20;;
74715;SDS011;63234;37.558;127.058;2022-09-03T02:28:37;2.15;;;1.30;;
74715;SDS011;63234;37.558;127.058;2022-09-03T02:31:03;1.80;;;1.10;;
74715;SDS011;63234;37.558;127.058;2022-09-03T02:33:29;3.22;;;1.30;;
74715;SDS011;63234;37.558;127.058;2022-09-03T02:35:55;1.77;;;1.05;;
74715;SDS011;63234;37.558;127.058;2022-09-03T02:38:22;1.88;;;1.17;;
74715;SDS011;63234;37.558;127.058;2022-09-03T02:40:49;2.17;;;1.20;;
74715;SDS011;63234;37.558;127.058;2022-09-03T02:43:26;3.20;;;1.25;;
74715;SDS011;63234;37.558;127.058;2022-09-03T02:46:01;3.85;;;1.30;;
74715;SDS011;63234;37.558;127.058;2022-09-03T02:48:28;2.35;;;1.20;;
74715;SDS011;63234;37.558;127.058;2022-09-03T02:50:54;2.67;;;1.40;;
74715;SDS011;63234;37.558;127.058;2022-09-03T02:53:19;1.88;;;1.08;;
74715;SDS011;63234;37.558;127.058;2022-09-03T02:55:45;2.22;;;1.30;;
74715;SDS011;63234;37.558;127.058;2022-09-03T02:58:10;1.65;;;1.08;;
74715;SDS011;63234;37.558;127.058;2022-09-03T03:00:36;2.33;;;1.30;;
74715;SDS011;63234;37.558;127.058;2022-09-03T03:03:02;2.50;;;1.20;;
74715;SDS011;63234;37.558;127.058;2022-09-03T03:08:23;1.88;;;1.33;;
74715;SDS011;63234;37.558;127.058;2022-09-03T03:10:52;6.55;;;1.27;;
74715;SDS011;63234;37.558;127.058;2022-09-03T03:13:22;1.77;;;0.95;;
74715;SDS011;63234;37.558;127.058;2022-09-03T03:15:48;3.58;;;1.20;;
74715;SDS011;63234;37.558;127.058;2022-09-03T03:18:14;1.67;;;1.23;;
74715;SDS011;63234;37.558;127.058;2022-09-03T03:20:41;2.33;;;1.20;;
74715;SDS011;63234;37.558;127.058;2022-09-03T03:23:07;2.88;;;1.23;;
74715;SDS011;63234;37.558;127.058;2022-09-03T03:25:34;2.72;;;1.10;;
74715;SDS011;63234;37.558;127.058;2022-09-03T03:28:00;2.38;;;1.42;;
74715;SDS011;63234;37.558;127.058;2022-09-03T03:30:26;3.42;;;1.30;;
74715;SDS011;63234;37.558;127.058;2022-09-03T03:32:54;1.95;;;1.25;;
74715;SDS011;63234;37.558;127.058;2022-09-03T03:35:19;4.10;;;1.13;;
74715;SDS011;63234;37.558;127.058;2022-09-03T03:37:45;2.03;;;1.30;;
74715;SDS011;63234;37.558;127.058;2022-09-03T03:40:11;1.95;;;1.15;;
74715;SDS011;63234;37.558;127.058;2022-09-03T03:42:37;2.80;;;1.20;;
74715;SDS011;63234;37.558;127.058;2022-09-03T03:45:02;4.13;;;1.23;;
74715;SDS011;63234;37.558;127.058;2022-09-03T03:47:28;1.70;;;1.10;;
74715;SDS011;63234;37.558;127.058;2022-09-03T03:49:55;1.90;;;1.20;;
74715;SDS011;63234;37.558;127.058;2022-09-03T03:52:21;5.13;;;1.17;;
74715;SDS011;63234;37.558;127.058;2022-09-03T03:54:47;2.03;;;1.30;;
74715;SDS011;63234;37.558;127.058;2022-09-03T03:57:14;3.38;;;1.20;;
74715;SDS011;63234;37.558;127.058;2022-09-03T03:59:39;1.40;;;1.20;;
74715;SDS011;63234;37.558;127.058;2022-09-03T04:02:05;2.55;;;1.40;;
74715;SDS011;63234;37.558;127.058;2022-09-03T04:04:30;1.75;;;1.08;;
74715;SDS011;63234;37.558;127.058;2022-09-03T04:06:55;3.05;;;1.35;;
74715;SDS011;63234;37.558;127.058;2022-09-03T04:09:21;3.85;;;1.35;;
74715;SDS011;63234;37.558;127.058;2022-09-03T04:11:46;4.57;;;1.40;;
74715;SDS011;63234;37.558;127.058;2022-09-03T04:14:11;3.13;;;1.17;;
74715;SDS011;63234;37.558;127.058;2022-09-03T04:16:37;3.88;;;1.40;;
74715;SDS011;63234;37.558;127.058;2022-09-03T04:19:02;2.58;;;1.25;;
74715;SDS011;63234;37.558;127.058;2022-09-03T04:21:28;4.75;;;1.52;;
74715;SDS011;63234;37.558;127.058;2022-09-03T04:23:54;1.92;;;1.30;;
74715;SDS011;63234;37.558;127.058;2022-09-03T04:26:22;1.90;;;1.30;;
74715;SDS011;63234;37.558;127.058;2022-09-03T04:28:55;2.25;;;1.17;;
74715;SDS011;63234;37.558;127.058;2022-09-03T04:31:21;1.65;;;0.98;;
74715;SDS011;63234;37.558;127.058;2022-09-03T04:33:46;2.78;;;1.20;;
74715;SDS011;63234;37.558;127.058;2022-09-03T04:36:13;2.70;;;1.42;;
74715;SDS011;63234;37.558;127.058;2022-09-03T04:38:43;1.60;;;1.20;;
74715;SDS011;63234;37.558;127.058;2022-09-03T04:41:10;1.80;;;1.20;;
74715;SDS011;63234;37.558;127.058;2022-09-03T04:43:38;2.88;;;1.15;;
74715;SDS011;63234;37.558;127.058;2022-09-03T04:46:04;1.98;;;1.27;;
74715;SDS011;63234;37.558;127.058;2022-09-03T04:48:31;1.73;;;1.17;;
74715;SDS011;63234;37.558;127.058;2022-09-03T04:51:01;3.30;;;1.30;;
74715;SDS011;63234;37.558;127.058;2022-09-03T04:53:33;2.90;;;1.30;;
74715;SDS011;63234;37.558;127.058;2022-09-03T04:56:00;3.05;;;1.50;;
74715;SDS011;63234;37.558;127.058;2022-09-03T04:58:25;2.85;;;1.58;;
74715;SDS011;63234;37.558;127.058;2022-09-03T05:00:51;6.50;;;1.45;;
74715;SDS011;63234;37.558;127.058;2022-09-03T05:03:17;3.30;;;1.40;;
74715;SDS011;63234;37.558;127.058;2022-09-03T05:05:42;3.65;;;1.40;;
74715;SDS011;63234;37.558;127.058;2022-09-03T05:08:16;3.42;;;1.42;;
74715;SDS011;63234;37.558;127.058;2022-09-03T05:10:41;3.33;;;1.50;;
74715;SDS011;63234;37.558;127.058;2022-09-03T05:40:59;6.05;;;1.45;;
74715;SDS011;63234;37.558;127.058;2022-09-03T05:43:30;2.58;;;1.40;;
74715;SDS011;63234;37.558;127.058;2022-09-03T05:45:57;3.83;;;1.35;;
74715;SDS011;63234;37.558;127.058;2022-09-03T05:48:26;4.80;;;1.20;;
74715;SDS011;63234;37.558;127.058;2022-09-03T05:50:59;2.30;;;1.40;;
74715;SDS011;63234;37.558;127.058;2022-09-03T05:53:29;3.40;;;1.40;;
74715;SDS011;63234;37.558;127.058;2022-09-03T05:55:57;2.70;;;1.33;;
74715;SDS011;63234;37.558;127.058;2022-09-03T05:58:23;2.20;;;1.33;;
74715;SDS011;63234;37.558;127.058;2022-09-03T06:00:49;2.42;;;1.63;;
74715;SDS011;63234;37.558;127.058;2022-09-03T06:03:15;1.80;;;1.10;;
74715;SDS011;63234;37.558;127.058;2022-09-03T06:05:48;2.63;;;1.50;;
74715;SDS011;63234;37.558;127.058;2022-09-03T06:08:15;2.47;;;1.23;;
74715;SDS011;63234;37.558;127.058;2022-09-03T06:10:40;2.67;;;1.30;;
74715;SDS011;63234;37.558;127.058;2022-09-03T06:13:05;2.45;;;1.42;;
74715;SDS011;63234;37.558;127.058;2022-09-03T06:15:31;3.28;;;1.45;;
74715;SDS011;63234;37.558;127.058;2022-09-03T06:17:56;2.75;;;1.35;;
74715;SDS011;63234;37.558;127.058;2022-09-03T06:20:22;3.00;;;1.38;;
74715;SDS011;63234;37.558;127.058;2022-09-03T06:22:53;2.13;;;1.33;;
74715;SDS011;63234;37.558;127.058;2022-09-03T06:25:19;3.70;;;1.60;;
74715;SDS011;63234;37.558;127.058;2022-09-03T06:27:44;3.95;;;1.40;;
74715;SDS011;63234;37.558;127.058;2022-09-03T06:30:11;4.68;;;1.50;;
74715;SDS011;63234;37.558;127.058;2022-09-03T06:32:43;2.40;;;1.30;;
74715;SDS011;63234;37.558;127.058;2022-09-03T06:35:09;3.22;;;1.40;;
74715;SDS011;63234;37.558;127.058;2022-09-03T06:37:38;3.15;;;1.42;;
74715;SDS011;63234;37.558;127.058;2022-09-03T06:40:04;2.35;;;1.40;;
74715;SDS011;63234;37.558;127.058;2022-09-03T06:42:32;2.47;;;1.38;;
74715;SDS011;63234;37.558;127.058;2022-09-03T06:44:58;3.85;;;1.40;;
74715;SDS011;63234;37.558;127.058;2022-09-03T06:47:23;9.85;;;1.50;;
74715;SDS011;63234;37.558;127.058;2022-09-03T06:49:49;1.92;;;1.30;;
74715;SDS011;63234;37.558;127.058;2022-09-03T06:52:14;2.85;;;1.55;;
74715;SDS011;63234;37.558;127.058;2022-09-03T06:54:39;4.47;;;1.60;;
74715;SDS011;63234;37.558;127.058;2022-09-03T06:57:05;1.70;;;1.20;;
74715;SDS011;63234;37.558;127.058;2022-09-03T06:59:30;3.55;;;1.30;;
74715;SDS011;63234;37.558;127.058;2022-09-03T07:01:56;2.53;;;1.33;;
74715;SDS011;63234;37.558;127.058;2022-09-03T07:04:23;2.25;;;1.35;;
74715;SDS011;63234;37.558;127.058;2022-09-03T07:06:49;2.47;;;1.35;;
74715;SDS011;63234;37.558;127.058;2022-09-03T07:09:14;3.15;;;1.25;;
74715;SDS011;63234;37.558;127.058;2022-09-03T07:11:42;3.03;;;1.58;;
74715;SDS011;63234;37.558;127.058;2022-09-03T07:14:11;14.52;;;1.65;;
74715;SDS011;63234;37.558;127.058;2022-09-03T07:16:37;2.13;;;1.48;;
74715;SDS011;63234;37.558;127.058;2022-09-03T07:19:05;4.07;;;1.63;;
74715;SDS011;63234;37.558;127.058;2022-09-03T07:21:33;4.40;;;1.40;;
74715;SDS011;63234;37.558;127.058;2022-09-03T07:24:00;2.80;;;1.40;;
74715;SDS011;63234;37.558;127.058;2022-09-03T07:26:30;4.60;;;1.52;;
74715;SDS011;63234;37.558;127.058;2022-09-03T07:29:04;3.05;;;1.40;;
74715;SDS011;63234;37.558;127.058;2022-09-03T07:31:35;5.95;;;1.50;;
74715;SDS011;63234;37.558;127.058;2022-09-03T07:34:06;2.42;;;1.50;;
74715;SDS011;63234;37.558;127.058;2022-09-03T07:36:35;3.78;;;1.55;;
74715;SDS011;63234;37.558;127.058;2022-09-03T07:39:05;2.50;;;1.20;;
74715;SDS011;63234;37.558;127.058;2022-09-03T07:41:31;2.47;;;1.42;;
74715;SDS011;63234;37.558;127.058;2022-09-03T07:43:57;3.10;;;1.70;;
74715;SDS011;63234;37.558;127.058;2022-09-03T07:46:25;2.75;;;1.60;;
74715;SDS011;63234;37.558;127.058;2022-09-03T07:49:00;4.20;;;1.50;;
74715;SDS011;63234;37.558;127.058;2022-09-03T07:51:30;5.97;;;1.65;;
74715;SDS011;63234;37.558;127.058;2022-09-03T07:53:57;4.53;;;1.63;;
74715;SDS011;63234;37.558;127.058;2022-09-03T07:56:24;2.58;;;1.45;;
74715;SDS011;63234;37.558;127.058;2022-09-03T07:58:51;2.72;;;1.35;;
74715;SDS011;63234;37.558;127.058;2022-09-03T08:01:17;4.65;;;1.80;;
74715;SDS011;63234;37.558;127.058;2022-09-03T08:03:44;2.97;;;1.55;;
74715;SDS011;63234;37.558;127.058;2022-09-03T08:06:11;2.97;;;1.30;;
74715;SDS011;63234;37.558;127.058;2022-09-03T08:08:37;4.28;;;1.65;;
74715;SDS011;63234;37.558;127.058;2022-09-03T08:11:08;3.78;;;1.88;;
74715;SDS011;63234;37.558;127.058;2022-09-03T08:13:42;4.78;;;1.70;;
74715;SDS011;63234;37.558;127.058;2022-09-03T08:16:09;2.30;;;1.60;;
74715;SDS011;63234;37.558;127.058;2022-09-03T08:18:36;4.75;;;1.80;;
74715;SDS011;63234;37.558;127.058;2022-09-03T08:21:06;3.05;;;1.50;;
74715;SDS011;63234;37.558;127.058;2022-09-03T08:23:39;3.97;;;1.40;;
74715;SDS011;63234;37.558;127.058;2022-09-03T08:26:06;4.53;;;1.80;;
74715;SDS011;63234;37.558;127.058;2022-09-03T08:28:32;2.20;;;1.40;;
74715;SDS011;63234;37.558;127.058;2022-09-03T08:30:58;2.20;;;1.63;;
74715;SDS011;63234;37.558;127.058;2022-09-03T08:33:31;4.60;;;1.92;;
74715;SDS011;63234;37.558;127.058;2022-09-03T08:38:36;3.08;;;1.60;;
74715;SDS011;63234;37.558;127.058;2022-09-03T08:41:09;2.28;;;1.42;;
74715;SDS011;63234;37.558;127.058;2022-09-03T08:43:53;4.38;;;1.80;;
74715;SDS011;63234;37.558;127.058;2022-09-03T08:46:20;3.95;;;1.67;;
74715;SDS011;63234;37.558;127.058;2022-09-03T08:48:50;3.10;;;1.80;;
74715;SDS011;63234;37.558;127.058;2022-09-03T08:51:16;3.92;;;1.95;;
74715;SDS011;63234;37.558;127.058;2022-09-03T08:56:11;3.47;;;1.60;;
74715;SDS011;63234;37.558;127.058;2022-09-03T08:58:38;3.05;;;1.70;;
74715;SDS011;63234;37.558;127.058;2022-09-03T09:06:22;3.95;;;1.63;;
74715;SDS011;63234;37.558;127.058;2022-09-03T09:11:26;2.97;;;1.80;;
74715;SDS011;63234;37.558;127.058;2022-09-03T09:14:16;3.72;;;1.77;;
74715;SDS011;63234;37.558;127.058;2022-09-03T09:16:51;6.03;;;1.88;;
74715;SDS011;63234;37.558;127.058;2022-09-03T09:22:04;3.13;;;1.88;;
74715;SDS011;63234;37.558;127.058;2022-09-03T09:24:46;4.55;;;1.90;;
74715;SDS011;63234;37.558;127.058;2022-09-03T09:27:13;4.35;;;1.70;;
74715;SDS011;63234;37.558;127.058;2022-09-03T09:29:45;7.65;;;1.80;;
74715;SDS011;63234;37.558;127.058;2022-09-03T09:32:13;3.45;;;1.77;;
74715;SDS011;63234;37.558;127.058;2022-09-03T09:34:41;7.97;;;1.80;;
74715;SDS011;63234;37.558;127.058;2022-09-03T09:37:08;7.68;;;1.90;;
74715;SDS011;63234;37.558;127.058;2022-09-03T09:39:36;8.65;;;2.08;;
74715;SDS011;63234;37.558;127.058;2022-09-03T09:44:38;5.65;;;1.95;;
74715;SDS011;63234;37.558;127.058;2022-09-03T09:49:59;5.35;;;1.90;;
74715;SDS011;63234;37.558;127.058;2022-09-03T09:52:29;5.30;;;1.63;;
74715;SDS011;63234;37.558;127.058;2022-09-03T09:55:08;10.57;;;2.00;;
74715;SDS011;63234;37.558;127.058;2022-09-03T09:57:39;3.83;;;1.80;;
74715;SDS011;63234;37.558;127.058;2022-09-03T10:00:08;7.03;;;1.67;;
74715;SDS011;63234;37.558;127.058;2022-09-03T10:02:36;4.07;;;1.77;;
74715;SDS011;63234;37.558;127.058;2022-09-03T10:07:37;6.03;;;1.83;;
74715;SDS011;63234;37.558;127.058;2022-09-03T10:10:10;4.18;;;1.33;;
74715;SDS011;63234;37.558;127.058;2022-09-03T10:12:52;4.47;;;1.60;;
74715;SDS011;63234;37.558;127.058;2022-09-03T10:23:29;4.63;;;1.30;;
74715;SDS011;63234;37.558;127.058;2022-09-03T10:26:04;4.82;;;1.73;;
74715;SDS011;63234;37.558;127.058;2022-09-03T10:28:34;1.75;;;1.42;;
74715;SDS011;63234;37.558;127.058;2022-09-03T10:36:19;4.43;;;1.30;;
74715;SDS011;63234;37.558;127.058;2022-09-03T10:38:50;4.65;;;1.30;;
74715;SDS011;63234;37.558;127.058;2022-09-03T10:46:40;10.45;;;1.30;;
74715;SDS011;63234;37.558;127.058;2022-09-03T10:51:58;3.13;;;1.20;;
74715;SDS011;63234;37.558;127.058;2022-09-03T11:00:00;2.55;;;1.35;;
74715;SDS011;63234;37.558;127.058;2022-09-03T11:02:51;2.72;;;1.17;;
74715;SDS011;63234;37.558;127.058;2022-09-03T11:05:20;5.40;;;1.40;;
74715;SDS011;63234;37.558;127.058;2022-09-03T11:07:48;4.50;;;1.50;;
74715;SDS011;63234;37.558;127.058;2022-09-03T11:13:00;2.97;;;1.20;;
74715;SDS011;63234;37.558;127.058;2022-09-03T11:17:57;2.58;;;1.40;;
74715;SDS011;63234;37.558;127.058;2022-09-03T11:20:25;2.90;;;1.30;;
74715;SDS011;63234;37.558;127.058;2022-09-03T11:23:00;2.65;;;1.45;;
74715;SDS011;63234;37.558;127.058;2022-09-03T11:25:35;4.35;;;1.30;;
74715;SDS011;63234;37.558;127.058;2022-09-03T11:28:20;5.88;;;1.50;;
74715;SDS011;63234;37.558;127.058;2022-09-03T11:33:38;2.40;;;1.30;;
74715;SDS011;63234;37.558;127.058;2022-09-03T11:36:06;6.55;;;1.80;;
74715;SDS011;63234;37.558;127.058;2022-09-03T11:38:31;4.82;;;1.98;;
74715;SDS011;63234;37.558;127.058;2022-09-03T11:40:57;2.17;;;1.38;;
74715;SDS011;63234;37.558;127.058;2022-09-03T11:43:43;3.30;;;1.40;;
74715;SDS011;63234;37.558;127.058;2022-09-03T11:48:44;2.60;;;1.30;;
74715;SDS011;63234;37.558;127.058;2022-09-03T11:56:22;6.25;;;1.80;;
74715;SDS011;63234;37.558;127.058;2022-09-03T11:58:58;4.43;;;1.48;;
74715;SDS011;63234;37.558;127.058;2022-09-03T12:01:24;2.83;;;1.42;;
74715;SDS011;63234;37.558;127.058;2022-09-03T12:03:53;4.40;;;1.38;;
74715;SDS011;63234;37.558;127.058;2022-09-03T12:20:37;2.55;;;1.35;;
74715;SDS011;63234;37.558;127.058;2022-09-03T12:23:02;3.40;;;1.50;;
74715;SDS011;63234;37.558;127.058;2022-09-03T12:25:28;3.42;;;1.45;;
74715;SDS011;63234;37.558;127.058;2022-09-03T12:27:53;4.95;;;1.38;;
74715;SDS011;63234;37.558;127.058;2022-09-03T12:30:22;1.88;;;1.13;;
74715;SDS011;63234;37.558;127.058;2022-09-03T12:32:48;2.08;;;1.30;;
74715;SDS011;63234;37.558;127.058;2022-09-03T12:35:19;4.95;;;1.27;;
74715;SDS011;63234;37.558;127.058;2022-09-03T12:37:46;2.65;;;1.33;;
74715;SDS011;63234;37.558;127.058;2022-09-03T12:40:16;3.70;;;1.30;;
74715;SDS011;63234;37.558;127.058;2022-09-03T12:42:50;3.30;;;1.40;;
74715;SDS011;63234;37.558;127.058;2022-09-03T12:45:25;2.90;;;1.30;;
74715;SDS011;63234;37.558;127.058;2022-09-03T12:47:51;2.47;;;1.25;;
74715;SDS011;63234;37.558;127.058;2022-09-03T12:50:19;2.60;;;1.60;;
74715;SDS011;63234;37.558;127.058;2022-09-03T12:52:52;3.63;;;1.40;;
74715;SDS011;63234;37.558;127.058;2022-09-03T12:55:25;3.60;;;1.10;;
74715;SDS011;63234;37.558;127.058;2022-09-03T13:25:36;3.08;;;1.17;;
74715;SDS011;63234;37.558;127.058;2022-09-03T13:28:24;4.50;;;1.20;;
74715;SDS011;63234;37.558;127.058;2022-09-03T13:31:30;4.20;;;1.25;;
74715;SDS011;63234;37.558;127.058;2022-09-03T13:34:00;2.03;;;1.02;;
74715;SDS011;63234;37.558;127.058;2022-09-03T13:36:33;4.43;;;1.00;;
74715;SDS011;63234;37.558;127.058;2022-09-03T13:39:26;2.88;;;1.25;;
74715;SDS011;63234;37.558;127.058;2022-09-03T13:42:17;2.30;;;1.40;;
74715;SDS011;63234;37.558;127.058;2022-09-03T13:44:58;4.72;;;1.33;;
74715;SDS011;63234;37.558;127.058;2022-09-03T13:47:34;1.73;;;1.23;;
74715;SDS011;63234;37.558;127.058;2022-09-03T13:50:10;3.08;;;1.58;;
74715;SDS011;63234;37.558;127.058;2022-09-03T13:52:52;3.08;;;1.40;;
74715;SDS011;63234;37.558;127.058;2022-09-03T13:58:03;3.08;;;1.17;;
74715;SDS011;63234;37.558;127.058;2022-09-03T14:03:28;1.90;;;1.20;;
74715;SDS011;63234;37.558;127.058;2022-09-03T14:06:07;1.52;;;1.15;;
74715;SDS011;63234;37.558;127.058;2022-09-03T14:11:27;1.88;;;1.20;;
74715;SDS011;63234;37.558;127.058;2022-09-03T14:19:26;2.95;;;1.40;;
74715;SDS011;63234;37.558;127.058;2022-09-03T14:22:03;2.33;;;1.30;;
74715;SDS011;63234;37.558;127.058;2022-09-03T14:24:43;1.85;;;1.20;;
74715;SDS011;63234;37.558;127.058;2022-09-03T14:27:11;3.38;;;1.10;;
74715;SDS011;63234;37.558;127.058;2022-09-03T14:29:37;3.00;;;1.35;;
74715;SDS011;63234;37.558;127.058;2022-09-03T14:32:09;6.40;;;1.27;;
74715;SDS011;63234;37.558;127.058;2022-09-03T14:34:54;2.45;;;1.15;;
74715;SDS011;63234;37.558;127.058;2022-09-03T14:54:37;3.88;;;1.42;;
74715;SDS011;63234;37.558;127.058;2022-09-03T14:59:44;2.03;;;1.50;;
74715;SDS011;63234;37.558;127.058;2022-09-03T15:12:52;3.03;;;1.60;;
74715;SDS011;63234;37.558;127.058;2022-09-03T15:15:20;1.95;;;1.30;;
74715;SDS011;63234;37.558;127.058;2022-09-03T15:24:05;2.35;;;1.10;;
74715;SDS011;63234;37.558;127.058;2022-09-03T15:26:22;1.73;;;1.20;;
74715;SDS011;63234;37.558;127.058;2022-09-03T15:36:43;1.80;;;1.33;;
74715;SDS011;63234;37.558;127.058;2022-09-03T15:39:23;2.77;;;1.50;;
74715;SDS011;63234;37.558;127.058;2022-09-03T15:41:52;2.40;;;1.60;;
74715;SDS011;63234;37.558;127.058;2022-09-03T15:44:21;3.30;;;1.40;;
74715;SDS011;63234;37.558;127.058;2022-09-03T15:47:07;2.38;;;1.42;;
74715;SDS011;63234;37.558;127.058;2022-09-03T15:49:46;2.85;;;1.58;;
74715;SDS011;63234;37.558;127.058;2022-09-03T16:03:16;1.90;;;1.38;;
74715;SDS011;63234;37.558;127.058;2022-09-03T16:05:50;1.73;;;1.23;;
74715;SDS011;63234;37.558;127.058;2022-09-03T16:11:17;2.13;;;1.40;;
74715;SDS011;63234;37.558;127.058;2022-09-03T16:19:40;1.65;;;1.23;;
74715;SDS011;63234;37.558;127.058;2022-09-03T16:36:02;3.15;;;1.38;;
74715;SDS011;63234;37.558;127.058;2022-09-03T16:41:24;4.95;;;1.33;;
74715;SDS011;63234;37.558;127.058;2022-09-03T17:00:38;1.92;;;1.50;;
74715;SDS011;63234;37.558;127.058;2022-09-03T17:03:42;2.03;;;1.30;;
74715;SDS011;63234;37.558;127.058;2022-09-03T17:06:12;3.83;;;1.50;;
74715;SDS011;63234;37.558;127.058;2022-09-03T17:11:50;2.22;;;1.52;;
74715;SDS011;63234;37.558;127.058;2022-09-03T17:24:57;2.28;;;1.70;;
74715;SDS011;63234;37.558;127.058;2022-09-03T17:30:09;2.77;;;1.53;;
74715;SDS011;63234;37.558;127.058;2022-09-03T17:41:05;2.35;;;1.40;;
74715;SDS011;63234;37.558;127.058;2022-09-03T17:48:55;3.17;;;1.50;;
74715;SDS011;63234;37.558;127.058;2022-09-03T17:54:21;2.45;;;1.77;;
74715;SDS011;63234;37.558;127.058;2022-09-03T18:00:02;2.53;;;1.75;;
74715;SDS011;63234;37.558;127.058;2022-09-03T18:05:19;1.95;;;1.40;;
74715;SDS011;63234;37.558;127.058;2022-09-03T18:13:47;3.08;;;1.50;;
74715;SDS011;63234;37.558;127.058;2022-09-03T18:16:18;2.47;;;1.60;;
74715;SDS011;63234;37.558;127.058;2022-09-03T18:18:50;3.97;;;1.60;;
74715;SDS011;63234;37.558;127.058;2022-09-03T18:21:21;2.88;;;1.60;;
74715;SDS011;63234;37.558;127.058;2022-09-03T18:28:01;2.47;;;1.73;;
74715;SDS011;63234;37.558;127.058;2022-09-03T18:30:39;2.65;;;1.67;;
74715;SDS011;63234;37.558;127.058;2022-09-03T18:33:23;3.10;;;1.67;;
74715;SDS011;63234;37.558;127.058;2022-09-03T18:38:51;2.85;;;1.45;;
74715;SDS011;63234;37.558;127.058;2022-09-03T18:42:06;3.97;;;1.80;;
74715;SDS011;63234;37.558;127.058;2022-09-03T18:48:00;3.33;;;2.05;;
74715;SDS011;63234;37.558;127.058;2022-09-03T18:57:25;3.08;;;1.60;;
74715;SDS011;63234;37.558;127.058;2022-09-03T19:00:15;3.08;;;1.70;;
74715;SDS011;63234;37.558;127.058;2022-09-03T19:03:01;2.53;;;1.67;;
74715;SDS011;63234;37.558;127.058;2022-09-03T19:12:45;2.85;;;1.80;;
74715;SDS011;63234;37.558;127.058;2022-09-03T19:15:36;2.63;;;1.65;;
74715;SDS011;63234;37.558;127.058;2022-09-03T19:19:29;5.38;;;1.95;;
74715;SDS011;63234;37.558;127.058;2022-09-03T19:22:13;3.20;;;1.50;;
74715;SDS011;63234;37.558;127.058;2022-09-03T19:25:01;3.58;;;1.95;;
74715;SDS011;63234;37.558;127.058;2022-09-03T19:37:17;2.80;;;1.80;;
74715;SDS011;63234;37.558;127.058;2022-09-03T19:55:38;4.00;;;2.00;;
74715;SDS011;63234;37.558;127.058;2022-09-03T19:58:25;2.83;;;1.73;;
74715;SDS011;63234;37.558;127.058;2022-09-03T20:01:11;2.92;;;1.90;;
74715;SDS011;63234;37.558;127.058;2022-09-03T20:03:57;3.20;;;1.58;;
74715;SDS011;63234;37.558;127.058;2022-09-03T20:06:43;2.53;;;1.85;;
74715;SDS011;63234;37.558;127.058;2022-09-03T20:09:29;2.95;;;1.80;;
74715;SDS011;63234;37.558;127.058;2022-09-03T20:12:16;3.63;;;1.88;;
74715;SDS011;63234;37.558;127.058;2022-09-03T20:14:44;2.75;;;1.67;;
74715;SDS011;63234;37.558;127.058;2022-09-03T20:17:26;3.85;;;2.10;;
74715;SDS011;63234;37.558;127.058;2022-09-03T20:20:14;2.67;;;1.73;;
74715;SDS011;63234;37.558;127.058;2022-09-03T20:22:55;4.30;;;1.65;;
74715;SDS011;63234;37.558;127.058;2022-09-03T20:33:51;4.68;;;2.40;;
74715;SDS011;63234;37.558;127.058;2022-09-03T20:39:49;3.33;;;1.80;;
74715;SDS011;63234;37.558;127.058;2022-09-03T20:55:49;6.60;;;2.10;;
74715;SDS011;63234;37.558;127.058;2022-09-03T21:12:29;3.00;;;2.10;;
74715;SDS011;63234;37.558;127.058;2022-09-03T21:17:54;3.15;;;2.00;;
74715;SDS011;63234;37.558;127.058;2022-09-03T21:23:41;3.10;;;1.75;;
74715;SDS011;63234;37.558;127.058;2022-09-03T21:28:51;3.83;;;1.80;;
74715;SDS011;63234;37.558;127.058;2022-09-03T21:31:32;3.55;;;1.90;;
74715;SDS011;63234;37.558;127.058;2022-09-03T21:34:07;2.72;;;1.90;;
74715;SDS011;63234;37.558;127.058;2022-09-03T21:36:34;2.83;;;1.95;;
74715;SDS011;63234;37.558;127.058;2022-09-03T21:39:08;3.05;;;1.98;;
74715;SDS011;63234;37.558;127.058;2022-09-03T21:41:36;3.90;;;2.10;;
74715;SDS011;63234;37.558;127.058;2022-09-03T21:44:06;2.97;;;2.08;;
74715;SDS011;63234;37.558;127.058;2022-09-03T21:46:48;6.78;;;2.05;;
74715;SDS011;63234;37.558;127.058;2022-09-03T21:49:53;4.57;;;2.03;;
74715;SDS011;63234;37.558;127.058;2022-09-03T21:52:20;3.72;;;2.50;;
74715;SDS011;63234;37.558;127.058;2022-09-03T21:54:49;4.65;;;2.30;;
74715;SDS011;63234;37.558;127.058;2022-09-03T21:57:19;3.45;;;1.98;;
74715;SDS011;63234;37.558;127.058;2022-09-03T22:00:15;3.13;;;1.85;;
74715;SDS011;63234;37.558;127.058;2022-09-03T22:02:43;4.30;;;2.10;;
74715;SDS011;63234;37.558;127.058;2022-09-03T22:05:10;3.20;;;2.03;;
74715;SDS011;63234;37.558;127.058;2022-09-03T22:15:34;3.75;;;1.80;;
74715;SDS011;63234;37.558;127.058;2022-09-03T22:20:31;3.08;;;1.80;;
74715;SDS011;63234;37.558;127.058;2022-09-03T22:23:09;4.78;;;2.20;;
74715;SDS011;63234;37.558;127.058;2022-09-03T22:25:46;2.60;;;2.05;;
74715;SDS011;63234;37.558;127.058;2022-09-03T22:33:37;3.65;;;1.92;;
74715;SDS011;63234;37.558;127.058;2022-09-03T22:36:12;2.80;;;1.88;;
74715;SDS011;63234;37.558;127.058;2022-09-03T22:44:14;3.53;;;2.00;;
74715;SDS011;63234;37.558;127.058;2022-09-03T22:46:59;6.00;;;2.33;;
74715;SDS011;63234;37.558;127.058;2022-09-03T22:50:06;4.15;;;2.10;;
74715;SDS011;63234;37.558;127.058;2022-09-03T22:52:53;3.80;;;1.88;;